Time;durP1;ratioP1;P1;durP2;ratioP2;P2;SDS_P1;SDS_P2;PMS_P1;PMS_P2;Temp;Humidity;BMP_temperature;BMP_pressure;BME280_temperature;BME280_humidity;BME280_pressure;Samples;Min_cycle;Max_cycle;Signal;HPM_P1;HPM_P2
2022/11/16 00:01:13;;;;;;;190.70;105.55;;;7.00;99.90;;;;;;5055134;28;20047;-73
2022/11/16 00:03:40;;;;;;;184.30;97.18;;;7.00;99.90;;;;;;5055204;28;20496;-73
2022/11/16 00:06:07;;;;;;;175.68;100.68;;;7.00;99.90;;;;;;5056297;28;20047;-73
2022/11/16 00:08:35;;;;;;;180.07;101.72;;;7.00;99.90;;;;;;5056319;28;20021;-68
2022/11/16 00:11:19;;;;;;;178.07;95.78;;;7.00;99.90;;;;;;5056445;28;20021;-68
2022/11/16 00:13:44;;;;;;;170.18;94.35;;;7.00;99.90;;;;;;5056578;28;20079;-73
2022/11/16 00:16:17;;;;;;;169.05;94.60;;;7.00;99.90;;;;;;5056123;28;20025;-73
2022/11/16 00:18:43;;;;;;;172.18;96.38;;;7.00;99.90;;;;;;5056291;28;20470;-73
2022/11/16 00:21:09;;;;;;;188.38;103.10;;;7.00;99.90;;;;;;5054918;28;20052;-68
2022/11/16 00:23:37;;;;;;;179.50;95.63;;;7.00;99.90;;;;;;5054925;28;20021;-68
2022/11/16 00:26:07;;;;;;;185.85;101.78;;;7.00;99.90;;;;;;5055893;28;20029;-68
2022/11/16 00:28:33;;;;;;;176.30;95.75;;;7.00;99.90;;;;;;5055988;28;20017;-68
2022/11/16 00:31:04;;;;;;;179.38;100.22;;;7.00;99.90;;;;;;5055892;28;20467;-68
2022/11/16 00:33:30;;;;;;;182.63;96.57;;;7.00;99.90;;;;;;5056040;28;20032;-73
2022/11/16 00:35:56;;;;;;;183.00;99.10;;;7.00;99.90;;;;;;5055620;28;20031;-73
2022/11/16 00:38:22;;;;;;;185.60;100.57;;;7.00;99.90;;;;;;5055681;28;20025;-68
2022/11/16 00:40:48;;;;;;;187.30;102.97;;;7.00;99.90;;;;;;5055836;28;20039;-73
2022/11/16 00:43:14;;;;;;;178.73;102.75;;;7.00;99.90;;;;;;5054490;28;20049;-68
2022/11/16 00:45:41;;;;;;;201.40;109.32;;;7.00;99.90;;;;;;5054379;28;20037;-73
2022/11/16 00:48:06;;;;;;;181.70;99.53;;;7.00;99.90;;;;;;5055570;28;20075;-69
2022/11/16 00:50:32;;;;;;;195.75;103.10;;;7.00;99.90;;;;;;5055590;28;20498;-68
2022/11/16 00:52:58;;;;;;;178.52;97.65;;;7.00;99.90;;;;;;5055566;28;20058;-70
2022/11/16 00:55:23;;;;;;;176.25;97.40;;;7.00;99.90;;;;;;5055600;28;20126;-73
2022/11/16 00:57:49;;;;;;;201.85;104.15;;;7.00;99.90;;;;;;5055425;28;20021;-73
2022/11/16 01:00:15;;;;;;;180.30;96.43;;;7.00;99.90;;;;;;5055194;28;20021;-68
2022/11/16 01:02:41;;;;;;;177.10;95.05;;;6.90;99.90;;;;;;5053404;28;20021;-68
2022/11/16 01:05:08;;;;;;;169.88;89.32;;;7.00;99.90;;;;;;5053969;28;20437;-68
2022/11/16 01:07:35;;;;;;;180.85;97.07;;;7.00;99.90;;;;;;5055350;28;20521;-68
2022/11/16 01:10:09;;;;;;;179.48;93.68;;;7.00;99.90;;;;;;5055347;28;20039;-73
2022/11/16 01:12:35;;;;;;;170.52;92.22;;;7.00;99.90;;;;;;5055077;28;20029;-73
2022/11/16 01:15:01;;;;;;;156.13;89.82;;;7.00;99.90;;;;;;5055164;28;20386;-73
2022/11/16 01:17:27;;;;;;;168.77;92.30;;;7.00;99.90;;;;;;5055097;28;20113;-73
2022/11/16 01:19:53;;;;;;;162.93;93.45;;;7.00;99.90;;;;;;5055176;28;20099;-72
2022/11/16 01:22:18;;;;;;;173.85;97.70;;;7.00;99.90;;;;;;5054901;28;20028;-69
2022/11/16 01:24:45;;;;;;;173.80;93.57;;;7.00;99.90;;;;;;5054903;28;20505;-69
2022/11/16 01:27:11;;;;;;;159.73;88.60;;;7.00;99.90;;;;;;5054771;28;20056;-73
2022/11/16 01:29:37;;;;;;;159.00;88.72;;;7.00;99.90;;;;;;5054871;28;20024;-69
2022/11/16 01:32:03;;;;;;;163.40;86.55;;;7.10;99.90;;;;;;5053548;28;20151;-70
2022/11/16 01:34:28;;;;;;;163.07;87.80;;;7.10;99.90;;;;;;5054836;28;20359;-72
2022/11/16 01:36:54;;;;;;;159.02;88.13;;;7.10;99.90;;;;;;5054904;28;20122;-69
2022/11/16 01:39:20;;;;;;;155.98;83.65;;;7.10;99.90;;;;;;5054606;28;20033;-73
2022/11/16 01:41:46;;;;;;;165.25;87.55;;;7.10;99.90;;;;;;5054522;28;20095;-73
2022/11/16 01:44:33;;;;;;;158.10;82.03;;;7.10;99.90;;;;;;5054428;28;20029;-73
2022/11/16 01:47:07;;;;;;;163.25;86.68;;;7.10;99.90;;;;;;5054745;28;20032;-73
2022/11/16 01:49:36;;;;;;;154.98;83.03;;;7.10;99.90;;;;;;5054602;28;20045;-68
2022/11/16 01:52:10;;;;;;;161.20;83.38;;;7.10;99.90;;;;;;5054368;28;20029;-73
2022/11/16 01:54:39;;;;;;;148.43;79.50;;;7.10;99.90;;;;;;5054526;28;20520;-68
2022/11/16 01:57:07;;;;;;;173.57;82.30;;;7.10;99.90;;;;;;5054279;28;20090;-68
2022/11/16 01:59:33;;;;;;;154.43;81.95;;;7.10;99.90;;;;;;5054311;28;20563;-72
2022/11/16 02:02:00;;;;;;;154.05;76.15;;;7.10;99.90;;;;;;5054227;28;20095;-73
2022/11/16 02:04:26;;;;;;;140.60;70.50;;;7.10;99.90;;;;;;5054069;28;20032;-68
2022/11/16 02:07:12;;;;;;;141.60;72.35;;;7.10;99.90;;;;;;5054388;28;20048;-73
2022/11/16 02:09:57;;;;;;;141.60;70.20;;;7.10;99.90;;;;;;5054036;28;20021;-73
2022/11/16 02:13:02;;;;;;;129.82;64.72;;;7.10;99.90;;;;;;5053905;28;20466;-68
2022/11/16 02:15:44;;;;;;;128.20;68.25;;;7.10;99.90;;;;;;5063729;28;20035;-68
2022/11/16 02:18:18;;;;;;;131.93;67.07;;;7.10;99.90;;;;;;5073957;28;20025;-73
2022/11/16 02:21:09;;;;;;;134.38;66.45;;;7.10;99.90;;;;;;5072427;28;20044;-68
2022/11/16 02:23:43;;;;;;;135.05;72.25;;;7.10;99.90;;;;;;5073845;28;20024;-68
2022/11/16 02:26:43;;;;;;;131.32;68.60;;;7.20;99.90;;;;;;5073726;28;20036;-73
2022/11/16 02:29:19;;;;;;;123.72;63.45;;;7.20;99.90;;;;;;5073668;28;20020;-73
2022/11/16 02:31:56;;;;;;;126.47;67.55;;;7.20;99.90;;;;;;5073950;28;20028;-73
2022/11/16 02:34:24;;;;;;;122.30;65.70;;;7.20;99.90;;;;;;5072330;28;20470;-68
2022/11/16 02:36:53;;;;;;;123.15;66.20;;;7.20;99.90;;;;;;5073696;28;20070;-73
2022/11/16 02:39:23;;;;;;;121.80;66.97;;;7.20;99.90;;;;;;5072099;28;20489;-68
2022/11/16 02:41:51;;;;;;;134.68;71.03;;;7.20;99.90;;;;;;5073519;28;20044;-68
2022/11/16 02:44:29;;;;;;;139.63;70.05;;;7.20;99.90;;;;;;5073347;28;20052;-69
2022/11/16 02:46:58;;;;;;;147.52;77.70;;;7.20;99.90;;;;;;5073546;28;20021;-68
2022/11/16 02:49:26;;;;;;;149.75;78.32;;;7.20;99.90;;;;;;5073358;28;20107;-68
2022/11/16 02:51:53;;;;;;;151.38;78.07;;;7.20;99.90;;;;;;5073510;28;20021;-73
2022/11/16 02:54:21;;;;;;;163.10;82.50;;;7.20;99.90;;;;;;5073304;28;20397;-73
2022/11/16 02:56:53;;;;;;;129.25;67.55;;;7.10;99.90;;;;;;5073347;28;20021;-73
2022/11/16 02:59:19;;;;;;;137.45;71.63;;;7.10;99.90;;;;;;5073211;28;20044;-73
2022/11/16 03:02:33;;;;;;;129.00;68.90;;;7.10;99.90;;;;;;5072103;28;20044;-73
2022/11/16 03:05:01;;;;;;;;;;;7.10;99.90;;;;;;5071647;28;20047;-73
2022/11/16 03:07:38;;;;;;;123.28;65.50;;;7.10;99.90;;;;;;5072951;28;20353;-68
2022/11/16 03:10:05;;;;;;;134.38;71.53;;;7.10;99.90;;;;;;5053102;28;20025;-68
2022/11/16 03:12:34;;;;;;;158.73;84.85;;;7.10;99.90;;;;;;5053212;28;20104;-69
2022/11/16 03:15:06;;;;;;;134.45;68.63;;;7.10;99.90;;;;;;5061195;28;20020;-68
2022/11/16 03:17:37;;;;;;;125.20;65.63;;;7.10;99.90;;;;;;5073150;28;20021;-73
2022/11/16 03:20:09;;;;;;;123.35;63.33;;;7.10;99.90;;;;;;5073083;28;20317;-72
2022/11/16 03:22:43;;;;;;;124.90;63.65;;;7.10;99.90;;;;;;5073206;28;20029;-68
2022/11/16 03:25:11;;;;;;;132.07;65.50;;;7.00;99.90;;;;;;5074066;28;20106;-68
2022/11/16 03:27:44;;;;;;;128.55;65.43;;;7.00;99.90;;;;;;5075797;28;20521;-69
2022/11/16 03:30:13;;;;;;;134.90;67.40;;;7.00;99.90;;;;;;5077229;28;20027;-68
2022/11/16 03:32:42;;;;;;;122.53;63.97;;;7.00;99.90;;;;;;5077165;28;20414;-68
2022/11/16 03:35:23;;;;;;;137.98;69.13;;;7.00;99.90;;;;;;5076958;28;20036;-73
2022/11/16 03:37:52;;;;;;;138.13;67.60;;;7.00;99.90;;;;;;5077179;28;20388;-73
2022/11/16 03:40:19;;;;;;;132.05;68.63;;;7.10;99.90;;;;;;5076824;28;20016;-73
2022/11/16 03:42:48;;;;;;;131.05;68.07;;;7.10;99.90;;;;;;5077060;28;20048;-73
2022/11/16 03:45:15;;;;;;;138.75;70.75;;;7.10;99.90;;;;;;5076846;28;20036;-72
2022/11/16 03:47:41;;;;;;;137.05;67.05;;;7.10;99.90;;;;;;5076933;28;20031;-73
2022/11/16 03:50:08;;;;;;;133.93;68.55;;;7.10;99.90;;;;;;5076627;28;20397;-73
2022/11/16 03:52:34;;;;;;;134.38;69.47;;;7.10;99.90;;;;;;5076876;28;20107;-68
2022/11/16 03:54:59;;;;;;;137.35;69.07;;;7.10;99.90;;;;;;5076837;28;20461;-68
2022/11/16 03:57:25;;;;;;;131.15;67.63;;;7.20;99.90;;;;;;5076630;28;20020;-69
2022/11/16 03:59:51;;;;;;;126.30;64.22;;;7.20;99.90;;;;;;5076712;28;20032;-73
2022/11/16 04:02:16;;;;;;;121.63;64.18;;;7.20;99.90;;;;;;5076580;28;20029;-69
2022/11/16 04:24:12;;;;;;;135.07;67.32;;;7.10;99.90;;;;;;5076178;28;20118;-68
2022/11/16 04:29:24;;;;;;;124.03;64.30;;;7.10;99.90;;;;;;5076046;28;20036;-68
2022/11/16 04:40:03;;;;;;;126.18;63.47;;;7.10;99.90;;;;;;5055813;28;20082;-71
2022/11/16 04:42:29;;;;;;;125.75;65.15;;;7.10;99.90;;;;;;5055796;28;20041;-72
2022/11/16 04:47:39;;;;;;;128.48;63.30;;;7.10;99.90;;;;;;5055550;28;20095;-73
2022/11/16 04:50:05;;;;;;;124.30;62.92;;;7.10;99.90;;;;;;5055570;28;20100;-73
2022/11/16 04:52:30;;;;;;;121.75;62.05;;;7.10;99.90;;;;;;5054326;28;20060;-69
2022/11/16 04:54:56;;;;;;;120.13;63.08;;;7.10;99.90;;;;;;5055493;28;20436;-68
2022/11/16 04:57:22;;;;;;;119.53;59.50;;;7.10;99.90;;;;;;5055492;28;20025;-73
2022/11/16 04:59:47;;;;;;;116.85;58.17;;;7.10;99.90;;;;;;5055511;28;20064;-68
2022/11/16 05:02:14;;;;;;;118.80;61.45;;;7.10;99.90;;;;;;5054208;28;20017;-73
2022/11/16 05:04:42;;;;;;;115.15;61.90;;;7.10;99.90;;;;;;5054968;28;20029;-73
2022/11/16 05:07:10;;;;;;;128.73;64.80;;;7.10;99.90;;;;;;5054990;28;20029;-68
2022/11/16 05:09:47;;;;;;;132.23;70.63;;;7.10;99.90;;;;;;5055193;28;20402;-72
2022/11/16 05:12:16;;;;;;;136.85;69.00;;;7.10;99.90;;;;;;5055159;28;20502;-73
2022/11/16 05:14:42;;;;;;;133.75;67.50;;;7.00;99.90;;;;;;5054906;28;20025;-68
2022/11/16 05:17:08;;;;;;;137.40;65.90;;;7.00;99.90;;;;;;5054908;28;20447;-68
2022/11/16 05:22:18;;;;;;;135.90;68.53;;;7.00;99.90;;;;;;5054830;28;20118;-68
2022/11/16 05:24:44;;;;;;;140.73;69.13;;;7.00;99.90;;;;;;5054854;28;20091;-68
2022/11/16 05:27:12;;;;;;;148.68;70.40;;;7.00;99.90;;;;;;5054622;28;20104;-73
2022/11/16 05:29:39;;;;;;;137.07;67.30;;;7.00;99.90;;;;;;5054709;28;20025;-68
2022/11/16 05:32:05;;;;;;;145.88;67.50;;;7.00;99.90;;;;;;5054642;28;20025;-73
2022/11/16 05:34:32;;;;;;;134.65;65.00;;;7.00;99.90;;;;;;5054686;28;20474;-73
2022/11/16 05:36:58;;;;;;;137.07;67.85;;;7.00;99.90;;;;;;5054642;28;20021;-68
2022/11/16 05:39:24;;;;;;;134.93;63.03;;;7.00;99.90;;;;;;5054599;28;20025;-68
2022/11/16 05:41:51;;;;;;;137.52;64.88;;;7.00;99.90;;;;;;5054390;28;20048;-73
2022/11/16 05:44:17;;;;;;;142.65;67.70;;;7.00;99.90;;;;;;5054566;28;20116;-73
2022/11/16 05:46:43;;;;;;;130.18;64.32;;;7.00;99.90;;;;;;5053894;28;20108;-72
2022/11/16 05:49:10;;;;;;;153.43;71.63;;;7.00;99.90;;;;;;5054438;28;20017;-73
2022/11/16 05:51:37;;;;;;;134.48;66.95;;;7.10;99.90;;;;;;5054571;28;20087;-73
2022/11/16 05:54:03;;;;;;;135.13;65.47;;;7.10;99.90;;;;;;5054347;28;20481;-69
2022/11/16 05:56:30;;;;;;;127.57;63.53;;;7.10;99.90;;;;;;5052867;28;20039;-73
2022/11/16 05:58:56;;;;;;;136.27;62.95;;;7.10;99.90;;;;;;5054155;28;20052;-73
2022/11/16 06:01:22;;;;;;;154.43;69.70;;;7.10;99.90;;;;;;5054170;28;20029;-73
2022/11/16 06:03:47;;;;;;;137.98;63.65;;;7.10;99.90;;;;;;5047751;28;20033;-68
2022/11/16 06:06:13;;;;;;;147.90;65.35;;;7.10;99.90;;;;;;5032453;28;20084;-72
2022/11/16 06:08:38;;;;;;;138.05;64.68;;;7.10;99.90;;;;;;5040258;28;20040;-68
2022/11/16 06:11:06;;;;;;;145.82;64.15;;;7.10;99.90;;;;;;5036292;28;20581;-68
2022/11/16 06:13:32;;;;;;;142.25;65.80;;;7.10;99.90;;;;;;5033808;28;20026;-73
2022/11/16 06:15:59;;;;;;;146.00;66.80;;;7.10;99.90;;;;;;5041040;28;20028;-69
2022/11/16 06:18:25;;;;;;;131.85;62.83;;;7.10;99.90;;;;;;5033720;28;20121;-68
2022/11/16 06:20:51;;;;;;;130.60;61.35;;;7.10;99.90;;;;;;5046649;28;20021;-72
2022/11/16 06:23:17;;;;;;;131.80;64.10;;;7.10;99.90;;;;;;5033927;28;20087;-73
2022/11/16 06:25:43;;;;;;;135.15;63.92;;;7.10;99.90;;;;;;5033717;28;20033;-73
2022/11/16 06:28:09;;;;;;;142.27;64.57;;;7.20;99.90;;;;;;5032096;28;20028;-69
2022/11/16 06:30:36;;;;;;;133.35;64.30;;;7.20;99.90;;;;;;5033032;28;20404;-73
2022/11/16 06:33:03;;;;;;;138.50;59.10;;;7.20;99.90;;;;;;5033322;28;20136;-72
2022/11/16 06:35:28;;;;;;;134.27;60.22;;;7.20;99.90;;;;;;5034372;28;20021;-73
2022/11/16 06:37:54;;;;;;;133.90;61.58;;;7.20;99.90;;;;;;5033523;28;20036;-69
2022/11/16 06:40:20;;;;;;;140.88;63.20;;;7.20;99.90;;;;;;5032879;28;20083;-68
2022/11/16 06:42:46;;;;;;;154.82;66.18;;;7.20;99.90;;;;;;5032763;28;20137;-73
2022/11/16 06:45:11;;;;;;;133.80;61.63;;;7.20;99.90;;;;;;5037383;28;20754;-73
2022/11/16 06:47:37;;;;;;;136.90;64.60;;;7.20;99.90;;;;;;5044787;28;20029;-72
2022/11/16 06:50:03;;;;;;;138.50;59.65;;;7.20;99.90;;;;;;5051781;28;20029;-73
2022/11/16 06:52:28;;;;;;;152.38;65.50;;;7.20;99.90;;;;;;5035352;28;20431;-68
2022/11/16 06:54:54;;;;;;;139.45;66.20;;;7.20;99.90;;;;;;5033535;28;20064;-72
2022/11/16 06:57:20;;;;;;;154.23;68.05;;;7.30;99.90;;;;;;5033374;28;20394;-72
2022/11/16 06:59:45;;;;;;;155.88;70.10;;;7.30;99.90;;;;;;5040295;28;20500;-72
2022/11/16 07:02:11;;;;;;;143.63;61.60;;;7.30;99.90;;;;;;5051008;28;20025;-73
2022/11/16 07:04:37;;;;;;;127.88;56.55;;;7.30;99.90;;;;;;5052264;28;20122;-73
2022/11/16 07:07:03;;;;;;;131.68;57.25;;;7.30;99.90;;;;;;5052476;28;20394;-73
2022/11/16 07:09:28;;;;;;;120.80;53.85;;;7.30;99.90;;;;;;5052444;28;20084;-73
2022/11/16 07:11:54;;;;;;;125.00;56.17;;;7.30;99.90;;;;;;5051157;28;20036;-69
2022/11/16 07:14:19;;;;;;;114.38;52.97;;;7.30;99.90;;;;;;5054161;28;20469;-67
2022/11/16 07:16:45;;;;;;;124.82;52.92;;;7.30;99.90;;;;;;5052244;28;20017;-69
2022/11/16 07:19:11;;;;;;;112.88;51.70;;;7.30;99.90;;;;;;5052244;28;20109;-67
2022/11/16 07:21:37;;;;;;;106.00;49.97;;;7.30;99.90;;;;;;5052271;28;20044;-68
2022/11/16 07:24:03;;;;;;;112.07;51.97;;;7.30;99.90;;;;;;5052227;28;20021;-67
2022/11/16 07:26:31;;;;;;;117.80;56.13;;;7.30;99.90;;;;;;5052134;28;20070;-67
2022/11/16 07:29:00;;;;;;;117.57;56.85;;;7.30;99.90;;;;;;5051046;28;20025;-68
2022/11/16 07:31:27;;;;;;;127.28;54.33;;;7.30;99.90;;;;;;5053150;28;20028;-73
2022/11/16 07:33:52;;;;;;;114.70;50.55;;;7.30;99.90;;;;;;5050262;28;20025;-72
2022/11/16 07:36:19;;;;;;;140.68;62.85;;;7.30;99.90;;;;;;5052774;28;20027;-68
2022/11/16 07:38:44;;;;;;;140.02;57.63;;;7.30;99.90;;;;;;5051952;28;20052;-72
2022/11/16 07:41:13;;;;;;;128.15;55.72;;;7.30;99.90;;;;;;5052619;28;20463;-73
2022/11/16 07:43:39;;;;;;;110.68;52.45;;;7.30;99.90;;;;;;5051530;28;20407;-72
2022/11/16 07:46:19;;;;;;;135.30;55.67;;;7.30;99.90;;;;;;5052879;28;20033;-72
2022/11/16 07:48:45;;;;;;;147.18;62.38;;;7.30;99.90;;;;;;5052876;28;20036;-73
2022/11/16 07:51:13;;;;;;;119.38;55.53;;;7.30;99.90;;;;;;5052799;28;20410;-67
2022/11/16 07:53:40;;;;;;;133.70;58.88;;;7.30;99.90;;;;;;5051454;28;20029;-73
2022/11/16 07:56:06;;;;;;;128.90;58.55;;;7.30;99.90;;;;;;5051595;28;20452;-68
2022/11/16 07:58:33;;;;;;;131.10;59.75;;;7.30;99.90;;;;;;5052784;28;20021;-72
2022/11/16 08:01:04;;;;;;;134.50;59.78;;;7.30;99.90;;;;;;5052822;28;20052;-72
2022/11/16 08:03:30;;;;;;;134.27;59.25;;;7.30;99.90;;;;;;5052594;28;20025;-67
2022/11/16 08:06:04;;;;;;;117.13;52.92;;;7.40;99.90;;;;;;5052639;28;20037;-68
2022/11/16 08:08:30;;;;;;;102.10;48.10;;;7.40;99.90;;;;;;5052743;28;20032;-67
2022/11/16 08:11:07;;;;;;;90.82;43.67;;;7.40;99.90;;;;;;5054422;28;20017;-68
2022/11/16 08:13:34;;;;;;;94.75;41.38;;;7.40;99.90;;;;;;5055040;28;20021;-72
2022/11/16 08:16:11;;;;;;;84.38;37.40;;;7.40;99.90;;;;;;5074423;28;20108;-72
2022/11/16 08:18:37;;;;;;;73.75;37.38;;;7.40;99.90;;;;;;5076516;28;20026;-72
2022/11/16 08:21:05;;;;;;;85.93;36.47;;;7.40;99.90;;;;;;5074675;28;20107;-68
2022/11/16 08:23:31;;;;;;;75.38;34.97;;;7.40;99.90;;;;;;5056206;28;20021;-68
2022/11/16 08:26:05;;;;;;;72.00;35.47;;;7.40;99.90;;;;;;5056153;28;20032;-68
2022/11/16 08:28:31;;;;;;;62.55;31.88;;;7.40;99.90;;;;;;5055955;28;20413;-73
2022/11/16 08:30:58;;;;;;;63.00;31.90;;;7.40;99.90;;;;;;5053713;28;20052;-69
2022/11/16 08:33:25;;;;;;;65.53;30.77;;;7.50;99.90;;;;;;5054611;28;20523;-68
2022/11/16 08:35:51;;;;;;;62.58;31.77;;;7.50;99.90;;;;;;5055097;28;20067;-68
2022/11/16 08:38:20;;;;;;;71.85;34.33;;;7.60;99.90;;;;;;5055261;28;20097;-68
2022/11/16 08:40:46;;;;;;;67.43;33.78;;;7.60;99.90;;;;;;5054921;28;20024;-67
2022/11/16 08:43:12;;;;;;;64.45;32.72;;;7.60;99.90;;;;;;5054851;28;20375;-68
2022/11/16 08:45:38;;;;;;;69.90;34.17;;;7.60;99.90;;;;;;5054731;28;20095;-69
2022/11/16 08:48:04;;;;;;;57.90;32.03;;;7.60;99.90;;;;;;5054881;28;20056;-68
2022/11/16 08:50:30;;;;;;;67.57;35.28;;;7.70;99.90;;;;;;5053479;28;20405;-68
2022/11/16 08:52:56;;;;;;;55.40;31.30;;;7.70;99.90;;;;;;5054785;28;20024;-68
2022/11/16 08:55:22;;;;;;;51.42;28.25;;;7.70;99.90;;;;;;5054488;28;20434;-68
2022/11/16 08:57:48;;;;;;;45.22;26.05;;;7.70;99.90;;;;;;5054409;28;20027;-71
2022/11/16 09:00:14;;;;;;;40.97;22.50;;;7.70;99.90;;;;;;5053278;28;20111;-73
2022/11/16 09:02:40;;;;;;;32.72;22.05;;;7.60;99.90;;;;;;5054538;28;20497;-73
2022/11/16 09:05:06;;;;;;;27.52;17.77;;;7.40;99.90;;;;;;5054461;28;20033;-73
2022/11/16 09:07:32;;;;;;;23.67;16.90;;;7.10;99.90;;;;;;5054700;28;20017;-72
2022/11/16 09:09:58;;;;;;;28.63;17.58;;;7.00;99.90;;;;;;5054737;28;20032;-72
2022/11/16 09:12:23;;;;;;;27.80;17.08;;;6.80;99.90;;;;;;5053422;28;20068;-72
2022/11/16 09:14:49;;;;;;;25.10;17.88;;;6.80;99.90;;;;;;5056679;28;20432;-68
2022/11/16 09:17:15;;;;;;;28.13;17.88;;;6.70;99.90;;;;;;5054531;28;20025;-72
2022/11/16 09:19:41;;;;;;;27.15;16.75;;;6.60;99.90;;;;;;5054850;28;20017;-72
2022/11/16 09:22:07;;;;;;;30.67;17.80;;;6.50;99.90;;;;;;5054135;28;20025;-69
2022/11/16 09:24:33;;;;;;;40.17;26.40;;;6.40;99.90;;;;;;5055006;28;20029;-68
2022/11/16 09:27:00;;;;;;;35.65;22.65;;;6.40;99.90;;;;;;5052268;28;20052;-73
2022/11/16 09:29:26;;;;;;;37.47;26.88;;;6.40;99.90;;;;;;5052026;28;20025;-72
2022/11/16 09:31:52;;;;;;;42.60;28.25;;;6.40;99.90;;;;;;5054308;28;20021;-72
2022/11/16 09:34:18;;;;;;;32.63;21.27;;;6.30;99.90;;;;;;5052731;28;20056;-68
2022/11/16 09:36:43;;;;;;;34.15;21.05;;;6.30;99.90;;;;;;5054142;28;20188;-69
2022/11/16 09:39:11;;;;;;;35.33;21.08;;;6.30;99.90;;;;;;5054612;28;20032;-71
2022/11/16 09:42:05;;;;;;;32.50;20.23;;;6.30;99.90;;;;;;5053361;28;20564;-71
2022/11/16 09:44:50;;;;;;;35.80;20.45;;;6.30;99.90;;;;;;5054315;28;20054;-72
2022/11/16 09:47:22;;;;;;;34.10;20.92;;;6.30;99.90;;;;;;5054224;28;20024;-68
2022/11/16 09:49:53;;;;;;;36.15;21.75;;;6.30;99.90;;;;;;5052637;28;20017;-67
2022/11/16 09:52:31;;;;;;;28.98;18.42;;;6.30;99.90;;;;;;5053783;28;20079;-68
2022/11/16 09:55:00;;;;;;;30.23;19.13;;;6.30;99.90;;;;;;5052409;28;20047;-67
2022/11/16 09:57:31;;;;;;;30.17;18.25;;;6.30;99.90;;;;;;5053680;28;20163;-67
2022/11/16 10:00:03;;;;;;;29.85;18.15;;;6.40;99.90;;;;;;5053525;28;20049;-68
2022/11/16 10:02:37;;;;;;;33.13;19.47;;;6.30;99.90;;;;;;5053692;28;20013;-68
2022/11/16 10:05:09;;;;;;;31.77;19.40;;;6.40;99.90;;;;;;5056078;28;20068;-67
2022/11/16 10:07:51;;;;;;;36.35;22.15;;;6.40;99.90;;;;;;5054266;28;20469;-68
2022/11/16 10:10:38;;;;;;;39.00;21.35;;;6.40;99.90;;;;;;5052782;28;20475;-71
2022/11/16 10:13:10;;;;;;;29.77;19.10;;;6.40;99.90;;;;;;5054419;28;20075;-68
2022/11/16 10:16:11;;;;;;;33.30;20.80;;;6.50;99.90;;;;;;5053359;28;20035;-72
2022/11/16 10:18:36;;;;;;;34.28;19.05;;;6.40;99.90;;;;;;5050417;28;20102;-73
2022/11/16 10:21:28;;;;;;;29.55;18.38;;;6.40;99.90;;;;;;5052475;28;20107;-68
2022/11/16 10:24:18;;;;;;;28.00;18.40;;;6.40;99.90;;;;;;5053268;28;20032;-67
2022/11/16 10:27:03;;;;;;;32.50;20.52;;;6.40;99.90;;;;;;5053095;28;20033;-72
2022/11/16 10:29:47;;;;;;;35.08;20.02;;;6.50;99.90;;;;;;5051772;28;20017;-73
2022/11/16 10:32:21;;;;;;;30.05;20.30;;;6.50;99.90;;;;;;5053387;28;20049;-68
2022/11/16 10:34:52;;;;;;;33.67;21.10;;;6.40;99.90;;;;;;5053384;28;20052;-72
2022/11/16 10:37:19;;;;;;;31.40;20.38;;;6.50;99.90;;;;;;5053511;28;20079;-68
2022/11/16 10:39:48;;;;;;;34.13;20.92;;;6.50;99.90;;;;;;5052193;28;20032;-68
2022/11/16 10:42:29;;;;;;;26.98;17.42;;;6.50;99.90;;;;;;5053295;28;20067;-67
2022/11/16 10:45:10;;;;;;;31.23;19.02;;;6.40;99.90;;;;;;5051976;28;20086;-68
2022/11/16 10:47:43;;;;;;;29.52;18.85;;;6.50;99.90;;;;;;5053172;28;20037;-69
2022/11/16 10:50:31;;;;;;;29.02;17.80;;;6.40;99.90;;;;;;5047185;28;20025;-73
2022/11/16 10:52:58;;;;;;;42.13;24.58;;;6.40;99.90;;;;;;5050375;28;20028;-73
2022/11/16 10:55:24;;;;;;;48.47;32.20;;;6.40;99.90;;;;;;5052012;28;20478;-68
2022/11/16 10:57:55;;;;;;;36.38;22.67;;;6.40;99.90;;;;;;5052150;28;20103;-68
2022/11/16 11:00:42;;;;;;;47.72;28.52;;;6.40;99.90;;;;;;5042460;28;20036;-72
2022/11/16 11:03:09;;;;;;;43.28;26.02;;;6.40;99.90;;;;;;5057728;28;20067;-73
2022/11/16 11:05:35;;;;;;;37.90;24.80;;;6.40;99.90;;;;;;5044796;28;20045;-73
2022/11/16 11:08:04;;;;;;;41.83;26.38;;;6.40;99.90;;;;;;5065842;28;20466;-72
2022/11/16 11:10:36;;;;;;;42.17;25.27;;;6.30;99.90;;;;;;5070071;28;20036;-72
2022/11/16 11:13:10;;;;;;;40.45;25.85;;;6.30;99.90;;;;;;5070886;28;20020;-73
2022/11/16 11:15:41;;;;;;;40.40;26.20;;;6.30;99.90;;;;;;5063617;28;20494;-73
2022/11/16 11:18:19;;;;;;;32.17;21.13;;;6.30;99.90;;;;;;5054765;28;20055;-73
2022/11/16 11:20:49;;;;;;;40.95;23.52;;;6.30;99.90;;;;;;5069873;28;20112;-68
2022/11/16 11:23:25;;;;;;;34.22;19.10;;;6.30;99.90;;;;;;5052198;28;20021;-68
2022/11/16 11:25:55;;;;;;;36.00;22.75;;;6.20;99.90;;;;;;5048115;28;20045;-68
2022/11/16 11:28:24;;;;;;;36.38;20.75;;;6.10;99.90;;;;;;5071433;28;20021;-73
2022/11/16 11:31:08;;;;;;;33.88;20.27;;;6.20;99.90;;;;;;5069297;28;20041;-73
2022/11/16 11:33:35;;;;;;;27.88;16.88;;;6.10;99.90;;;;;;5047199;28;20469;-73
2022/11/16 11:36:12;;;;;;;30.50;17.50;;;6.10;99.90;;;;;;5070684;28;20127;-74
2022/11/16 11:38:59;;;;;;;31.58;18.30;;;6.10;99.90;;;;;;5070230;28;20601;-74
2022/11/16 11:41:32;;;;;;;32.88;21.50;;;6.10;99.90;;;;;;5045563;28;20075;-74
2022/11/16 11:44:03;;;;;;;34.55;23.10;;;6.10;99.90;;;;;;5071663;28;20020;-68
2022/11/16 11:46:34;;;;;;;32.40;19.70;;;6.00;99.90;;;;;;5074207;28;20044;-68
2022/11/16 11:49:29;;;;;;;23.48;14.27;;;6.00;99.90;;;;;;5061869;28;20031;-68
2022/11/16 11:51:59;;;;;;;25.00;17.60;;;5.90;99.90;;;;;;5075141;28;20082;-68
2022/11/16 11:54:42;;;;;;;21.30;16.48;;;5.90;99.90;;;;;;5061177;28;20052;-69
2022/11/16 11:57:14;;;;;;;25.58;15.93;;;5.80;99.90;;;;;;5075628;28;20033;-67
2022/11/16 11:59:40;;;;;;;19.43;13.20;;;5.70;99.90;;;;;;5075077;28;20028;-68
2022/11/16 12:02:09;;;;;;;18.30;12.75;;;5.70;99.90;;;;;;5053821;28;20540;-73
2022/11/16 12:05:14;;;;;;;19.08;12.35;;;5.70;99.90;;;;;;5074227;28;20028;-73
2022/11/16 12:08:21;;;;;;;23.45;16.33;;;5.60;99.90;;;;;;5069140;28;20025;-68
2022/11/16 12:10:52;;;;;;;54.17;36.13;;;5.60;99.90;;;;;;5022692;28;20120;-68
2022/11/16 12:14:03;;;;;;;47.72;30.10;;;5.60;99.90;;;;;;5069680;28;20035;-73
2022/11/16 12:16:51;;;;;;;28.30;18.33;;;5.60;99.90;;;;;;5050414;28;20056;-73
2022/11/16 12:19:29;;;;;;;9.70;8.15;;;5.50;99.90;;;;;;5074003;28;20044;-73
2022/11/16 12:22:24;;;;;;;23.75;16.63;;;5.50;99.90;;;;;;5062685;28;20037;-68
2022/11/16 12:24:53;;;;;;;37.53;26.83;;;5.50;99.90;;;;;;5056698;28;20032;-68
2022/11/16 12:27:25;;;;;;;18.83;16.20;;;5.50;99.90;;;;;;5074934;28;20082;-68
2022/11/16 12:30:05;;;;;;;51.92;36.97;;;5.50;99.90;;;;;;5073515;28;20032;-73
2022/11/16 12:33:01;;;;;;;10.18;8.55;;;5.40;99.90;;;;;;5074731;28;20536;-68
2022/11/16 12:35:33;;;;;;;19.48;14.55;;;5.40;99.90;;;;;;5071043;28;20040;-68
2022/11/16 12:38:13;;;;;;;19.05;14.65;;;5.40;99.90;;;;;;5074922;28;20074;-74
2022/11/16 12:41:17;;;;;;;61.55;41.75;;;5.40;99.90;;;;;;5064050;28;20110;-68
2022/11/16 12:43:55;;;;;;;;;;;5.30;99.90;;;;;;5055653;28;20036;-69
2022/11/16 12:46:28;;;;;;;12.40;9.38;;;5.30;99.90;;;;;;5072087;28;20003;-69
2022/11/16 12:48:53;;;;;;;20.42;15.38;;;5.30;99.90;;;;;;5072099;28;20508;-68
2022/11/16 12:51:38;;;;;;;16.67;12.77;;;5.30;99.90;;;;;;5073027;28;20067;-74
2022/11/16 12:54:36;;;;;;;5.95;5.45;;;5.30;99.90;;;;;;5066604;28;20054;-68
2022/11/16 12:57:04;;;;;;;4.20;3.80;;;5.20;99.90;;;;;;5070480;28;20036;-68
2022/11/16 12:59:55;;;;;;;26.15;16.90;;;5.10;99.90;;;;;;5053834;28;20021;-68
2022/11/16 13:02:39;;;;;;;9.07;6.70;;;5.10;99.90;;;;;;5040970;28;20029;-68
2022/11/16 13:05:24;;;;;;;23.67;14.55;;;5.00;99.90;;;;;;5052041;28;20505;-68
2022/11/16 13:08:21;;;;;;;4.50;2.90;;;5.00;99.90;;;;;;5047717;28;20022;-68
2022/11/16 13:10:59;;;;;;;5.28;3.60;;;4.90;99.90;;;;;;5055191;28;20041;-68
2022/11/16 13:13:30;;;;;;;23.25;15.07;;;4.80;99.90;;;;;;5073822;28;20107;-68
2022/11/16 13:15:58;;;;;;;21.33;15.27;;;4.90;99.90;;;;;;5067318;28;20103;-68
2022/11/16 13:18:26;;;;;;;18.27;11.13;;;4.90;99.90;;;;;;5073114;28;20059;-73
2022/11/16 13:21:15;;;;;;;5.45;4.95;;;4.90;99.90;;;;;;5073742;28;20489;-73
2022/11/16 13:23:51;;;;;;;6.22;3.88;;;4.90;99.90;;;;;;5066619;28;20026;-73
2022/11/16 13:26:25;;;;;;;299.48;158.93;;;4.90;99.90;;;;;;5065298;28;20045;-74